Time;durP1;ratioP1;P1;durP2;ratioP2;P2;SDS_P1;SDS_P2;PMS_P1;PMS_P2;Temp;Humidity;BMP_temperature;BMP_pressure;BME280_temperature;BME280_humidity;BME280_pressure;Samples;Min_cycle;Max_cycle;Signal;HPM_P1;HPM_P2
2023/07/25 00:00:39;;;;;;;;;;;;;;;18.38;79.47;99512.98;108611;1261;75416;-85
2023/07/25 00:03:26;;;;;;;;;;;;;;;18.36;79.40;99511.79;108599;1260;65711;-85
2023/07/25 00:05:53;;;;;;;;;;;;;;;18.34;79.36;99512.04;108725;1260;71598;-85
2023/07/25 00:08:20;;;;;;;;;;;;;;;18.32;79.35;99518.64;108542;1260;125054;-85
2023/07/25 00:10:47;;;;;;;;;;;;;;;18.31;79.40;99509.27;108716;1260;60178;-85
2023/07/25 00:13:14;;;;;;;;;;;;;;;18.28;79.41;99510.77;108456;1260;125642;-85
2023/07/25 00:15:41;;;;;;;;;;;;;;;18.29;79.46;99506.84;108579;1261;67054;-85
2023/07/25 00:18:08;;;;;;;;;;;;;;;18.28;79.49;99495.86;108618;1265;71454;-85
2023/07/25 00:20:35;;;;;;;;;;;;;;;18.26;79.43;99483.29;108439;1261;125239;-85
2023/07/25 00:23:02;;;;;;;;;;;;;;;18.27;79.59;99475.45;108576;1261;59914;-85
2023/07/25 00:25:29;;;;;;;;;;;;;;;18.28;79.65;99464.23;108628;1260;125080;-85
2023/07/25 00:27:56;;;;;;;;;;;;;;;18.29;79.62;99451.09;108736;1262;65893;-85
2023/07/25 00:30:23;;;;;;;;;;;;;;;18.30;79.66;99436.84;108536;1260;71424;-85
2023/07/25 00:32:50;;;;;;;;;;;;;;;18.31;79.65;99420.13;108600;1260;125640;-85
2023/07/25 00:35:17;;;;;;;;;;;;;;;18.31;79.62;99407.52;108743;1261;60643;-85
2023/07/25 00:37:44;;;;;;;;;;;;;;;18.30;79.66;99407.00;108613;1260;125868;-85
2023/07/25 00:40:11;;;;;;;;;;;;;;;18.31;79.70;99429.34;108606;1260;65540;-85
2023/07/25 00:42:38;;;;;;;;;;;;;;;18.28;79.69;99462.09;108547;1260;71393;-85
2023/07/25 00:45:06;;;;;;;;;;;;;;;18.25;79.69;99466.27;108592;1260;124999;-85
2023/07/25 00:47:33;;;;;;;;;;;;;;;18.21;79.71;99459.80;108685;1261;59843;-88
2023/07/25 00:50:00;;;;;;;;;;;;;;;18.19;79.84;99458.98;108523;1260;125591;-89
2023/07/25 00:52:27;;;;;;;;;;;;;;;18.17;79.81;99467.38;108771;1260;67184;-88
2023/07/25 00:54:53;;;;;;;;;;;;;;;18.16;79.84;99458.16;108639;1260;125611;-88
2023/07/25 00:57:20;;;;;;;;;;;;;;;18.16;79.85;99461.02;108635;1260;60026;-89
2023/07/25 00:59:47;;;;;;;;;;;;;;;18.16;79.92;99479.30;108672;1260;60014;-89
2023/07/25 01:02:14;;;;;;;;;;;;;;;18.14;79.95;99479.70;108561;1260;123852;-85
2023/07/25 01:04:41;;;;;;;;;;;;;;;18.13;79.92;99484.16;108603;1260;66384;-85
2023/07/25 01:07:09;;;;;;;;;;;;;;;18.13;79.98;99482.59;108415;1260;125095;-85
2023/07/25 01:09:40;;;;;;;;;;;;;;;18.12;80.07;99482.06;108562;1263;59943;-85
2023/07/25 01:12:07;;;;;;;;;;;;;;;18.11;80.12;99478.02;108706;1261;60303;-85
2023/07/25 01:14:34;;;;;;;;;;;;;;;18.10;80.14;99477.88;108554;1260;125788;-85
2023/07/25 01:17:06;;;;;;;;;;;;;;;18.08;80.14;99475.08;108445;1260;67117;-85
2023/07/25 01:19:33;;;;;;;;;;;;;;;18.06;80.25;99476.90;108518;1260;125476;-85
2023/07/25 01:22:00;;;;;;;;;;;;;;;18.04;80.33;99481.02;108560;1263;60135;-85
2023/07/25 01:24:27;;;;;;;;;;;;;;;18.05;80.42;99470.69;108702;1260;59908;-85
2023/07/25 01:26:55;;;;;;;;;;;;;;;18.05;80.51;99465.92;108591;1260;124893;-85
2023/07/25 01:29:22;;;;;;;;;;;;;;;18.04;80.44;99462.75;108678;1260;67027;-85
2023/07/25 01:31:49;;;;;;;;;;;;;;;18.03;80.58;99463.48;108482;1261;126394;-85
2023/07/25 01:34:15;;;;;;;;;;;;;;;18.01;80.49;99466.73;108698;1261;60868;-85
2023/07/25 01:36:42;;;;;;;;;;;;;;;17.98;80.54;99478.52;108733;1261;59935;-85
2023/07/25 01:39:09;;;;;;;;;;;;;;;17.96;80.68;99480.52;108468;1260;125252;-85
2023/07/25 01:41:37;;;;;;;;;;;;;;;17.95;80.69;99478.77;108576;1261;66511;-84
2023/07/25 01:44:05;;;;;;;;;;;;;;;17.92;80.69;99477.63;108468;1260;125864;-85
2023/07/25 01:46:32;;;;;;;;;;;;;;;17.88;80.68;99494.77;108756;1260;59975;-85
2023/07/25 01:48:59;;;;;;;;;;;;;;;17.85;80.80;99503.70;108625;1260;125361;-85
2023/07/25 01:51:26;;;;;;;;;;;;;;;17.88;80.97;99509.11;108584;1264;75313;-85
2023/07/25 01:53:53;;;;;;;;;;;;;;;17.90;80.97;99514.23;108702;1260;67056;-85
2023/07/25 01:56:20;;;;;;;;;;;;;;;17.91;80.99;99518.82;108501;1261;125283;-85
2023/07/25 01:58:47;;;;;;;;;;;;;;;17.94;81.03;99514.48;108426;1260;60043;-85
2023/07/25 02:01:15;;;;;;;;;;;;;;;17.95;81.03;99516.56;108589;1260;125090;-85
2023/07/25 02:03:41;;;;;;;;;;;;;;;17.97;81.00;99510.67;108549;1260;74539;-85
2023/07/25 02:06:08;;;;;;;;;;;;;;;17.96;80.95;99509.99;108678;1260;64740;-85
2023/07/25 02:08:35;;;;;;;;;;;;;;;17.93;80.78;99509.20;108511;1260;124896;-85
2023/07/25 02:11:02;;;;;;;;;;;;;;;17.89;80.78;99509.98;108643;1260;59897;-85
2023/07/25 02:13:29;;;;;;;;;;;;;;;17.85;80.81;99513.61;108618;1260;125369;-85
2023/07/25 02:15:56;;;;;;;;;;;;;;;17.81;80.83;99517.95;108625;1257;80423;-85
2023/07/25 02:18:25;;;;;;;;;;;;;;;17.78;80.80;99513.77;108486;1261;66408;-85
2023/07/25 02:20:52;;;;;;;;;;;;;;;17.76;81.04;99513.81;108436;1261;126887;-85
2023/07/25 02:23:25;;;;;;;;;;;;;;;17.76;81.10;99520.04;108588;1260;60187;-85
2023/07/25 02:25:52;;;;;;;;;;;;;;;17.75;81.21;99522.00;108422;1262;125652;-85
2023/07/25 02:28:19;;;;;;;;;;;;;;;17.75;81.18;99523.59;108428;1266;76320;-84
2023/07/25 02:30:46;;;;;;;;;;;;;;;17.75;81.24;99523.44;108454;1264;67415;-85
2023/07/25 02:33:13;;;;;;;;;;;;;;;17.75;81.33;99530.52;108242;1263;125415;-85
2023/07/25 02:35:40;;;;;;;;;;;;;;;17.75;81.36;99533.55;108313;1261;60151;-85
2023/07/25 02:38:07;;;;;;;;;;;;;;;17.74;81.38;99533.73;108452;1260;126038;-85
2023/07/25 02:40:34;;;;;;;;;;;;;;;17.73;81.33;99534.13;108499;1260;75554;-84
2023/07/25 02:43:02;;;;;;;;;;;;;;;17.71;81.32;99528.14;108419;1261;125290;-85
2023/07/25 02:45:29;;;;;;;;;;;;;;;17.66;81.33;99531.96;108556;1265;72044;-85
2023/07/25 02:47:56;;;;;;;;;;;;;;;17.64;81.49;99539.98;108358;1260;59987;-84
2023/07/25 02:50:23;;;;;;;;;;;;;;;17.63;81.47;99543.75;108231;1261;125597;-84
2023/07/25 02:52:50;;;;;;;;;;;;;;;17.61;81.56;99546.81;108328;1266;74779;-85
2023/07/25 02:55:18;;;;;;;;;;;;;;;17.60;81.54;99545.96;108282;1266;125695;-85
2023/07/25 02:57:45;;;;;;;;;;;;;;;17.58;81.53;99543.86;108504;1260;72142;-85
2023/07/25 03:00:12;;;;;;;;;;;;;;;17.54;81.41;99548.76;108653;1260;60395;-85
2023/07/25 03:02:39;;;;;;;;;;;;;;;17.49;81.36;99544.42;108400;1263;126041;-84
2023/07/25 03:05:06;;;;;;;;;;;;;;;17.44;81.18;99542.05;108472;1261;74004;-84
2023/07/25 03:07:33;;;;;;;;;;;;;;;17.39;81.17;99543.95;108402;1260;126351;-85
2023/07/25 03:10:02;;;;;;;;;;;;;;;17.34;81.22;99537.50;108579;1276;72003;-84
2023/07/25 03:12:30;;;;;;;;;;;;;;;17.29;81.23;99536.16;108642;1260;60186;-84
2023/07/25 03:14:57;;;;;;;;;;;;;;;17.27;81.24;99535.34;108394;1260;126111;-84
2023/07/25 03:17:27;;;;;;;;;;;;;;;17.26;81.32;99530.40;108587;1259;74166;-84
2023/07/25 03:19:54;;;;;;;;;;;;;;;17.25;81.38;99533.07;108317;1261;125783;-85
2023/07/25 03:22:24;;;;;;;;;;;;;;;17.27;81.39;99535.88;108565;1261;72251;-85
2023/07/25 03:24:51;;;;;;;;;;;;;;;17.30;81.45;99533.48;108663;1261;59945;-85
2023/07/25 03:27:20;;;;;;;;;;;;;;;17.34;81.52;99534.48;108636;1260;124974;-84
2023/07/25 03:29:47;;;;;;;;;;;;;;;17.39;81.50;99534.89;108453;1261;75742;-85
2023/07/25 03:32:16;;;;;;;;;;;;;;;17.42;81.45;99532.69;108475;1260;125839;-85
2023/07/25 03:34:43;;;;;;;;;;;;;;;17.48;81.50;99534.86;108503;1261;73170;-85
2023/07/25 03:37:10;;;;;;;;;;;;;;;17.54;81.42;99535.80;108499;1261;125333;-84
2023/07/25 03:39:36;;;;;;;;;;;;;;;17.67;81.69;99538.34;108697;1260;60641;-85
2023/07/25 03:42:07;;;;;;;;;;;;;;;17.87;81.64;99536.83;108638;1259;75571;-85
2023/07/25 03:44:34;;;;;;;;;;;;;;;18.18;81.62;99538.55;108282;1264;125370;-85
2023/07/25 03:47:01;;;;;;;;;;;;;;;18.74;82.71;99539.91;108345;1267;70318;-85
2023/07/25 03:49:31;;;;;;;;;;;;;;;20.08;84.75;99538.14;108549;1260;125653;-85
2023/07/25 03:52:00;;;;;;;;;;;;;;;21.77;83.53;99544.84;108647;1260;60007;-85
2023/07/25 03:54:27;;;;;;;;;;;;;;;23.12;80.76;99543.23;108500;1260;74813;-85
2023/07/25 03:56:57;;;;;;;;;;;;;;;24.24;78.48;99535.52;108522;1260;125124;-85
2023/07/25 03:59:24;;;;;;;;;;;;;;;25.34;76.27;99532.48;108684;1260;72829;-84
2023/07/25 04:01:53;;;;;;;;;;;;;;;26.36;73.85;99535.23;108467;1260;125281;-85
2023/07/25 04:04:20;;;;;;;;;;;;;;;27.32;71.46;99534.27;108517;1260;60130;-85
2023/07/25 04:06:47;;;;;;;;;;;;;;;28.25;69.76;99540.25;108530;1259;76705;-85
2023/07/25 04:09:14;;;;;;;;;;;;;;;29.14;67.85;99548.80;108458;1275;125444;-84
2023/07/25 04:11:41;;;;;;;;;;;;;;;29.92;65.68;99557.80;108431;1266;64583;-84
2023/07/25 04:14:08;;;;;;;;;;;;;;;30.62;63.81;99558.83;108322;1275;124804;-84
2023/07/25 04:16:37;;;;;;;;;;;;;;;30.10;59.98;99555.86;108723;1261;60103;-83
2023/07/25 04:19:04;;;;;;;;;;;;;;;29.28;60.16;99553.77;108447;1260;125733;-83
2023/07/25 04:21:31;;;;;;;;;;;;;;;29.80;61.19;99555.23;108580;1263;60316;-84
2023/07/25 04:23:58;;;;;;;;;;;;;;;30.95;60.28;99555.74;108544;1261;64087;-84
2023/07/25 04:26:25;;;;;;;;;;;;;;;32.00;58.81;99553.07;108256;1260;125317;-84
2023/07/25 04:28:52;;;;;;;;;;;;;;;32.95;57.13;99551.35;108417;1260;60266;-83
2023/07/25 04:31:19;;;;;;;;;;;;;;;33.64;55.33;99552.59;108580;1260;126958;-84
2023/07/25 04:33:46;;;;;;;;;;;;;;;34.30;53.94;99549.51;108542;1260;60284;-84
2023/07/25 04:36:13;;;;;;;;;;;;;;;35.07;52.88;99551.32;108602;1264;65832;-84
2023/07/25 04:38:40;;;;;;;;;;;;;;;35.88;51.28;99549.61;108478;1263;124772;-84
2023/07/25 04:41:07;;;;;;;;;;;;;;;36.64;49.59;99552.13;108452;1260;60193;-84
2023/07/25 04:43:34;;;;;;;;;;;;;;;37.32;48.18;99549.26;108368;1259;126577;-84
2023/07/25 04:46:01;;;;;;;;;;;;;;;37.91;46.78;99548.41;108593;1265;60694;-84
2023/07/25 04:48:28;;;;;;;;;;;;;;;38.50;45.25;99550.66;108532;1262;64624;-85
2023/07/25 04:50:55;;;;;;;;;;;;;;;38.54;43.02;99557.02;108403;1266;125571;-84
2023/07/25 04:53:25;;;;;;;;;;;;;;;37.23;41.87;99555.99;108491;1263;59993;-84
2023/07/25 04:55:52;;;;;;;;;;;;;;;37.02;42.73;99559.52;108288;1266;124784;-85
2023/07/25 04:58:19;;;;;;;;;;;;;;;37.68;42.16;99559.90;108563;1260;59986;-85
2023/07/25 05:00:46;;;;;;;;;;;;;;;37.88;41.38;99562.72;108438;1260;64127;-83
2023/07/25 05:03:16;;;;;;;;;;;;;;;38.52;40.72;99562.58;108266;1260;124986;-84
2023/07/25 05:05:46;;;;;;;;;;;;;;;39.18;39.87;99555.66;108426;1259;60238;-83
2023/07/25 05:08:13;;;;;;;;;;;;;;;39.04;38.58;99555.71;108517;1259;126379;-84
2023/07/25 05:10:41;;;;;;;;;;;;;;;37.95;37.66;99546.91;108523;1264;59940;-83
2023/07/25 05:13:07;;;;;;;;;;;;;;;36.28;37.56;99542.80;108371;1263;126822;-84
2023/07/25 05:15:37;;;;;;;;;;;;;;;36.03;38.89;99545.96;108562;1260;60054;-84
2023/07/25 05:18:06;;;;;;;;;;;;;;;35.89;38.02;99551.86;108410;1261;60343;-83
2023/07/25 05:20:41;;;;;;;;;;;;;;;34.24;37.56;99549.55;108362;1261;125393;-84
2023/07/25 05:23:12;;;;;;;;;;;;;;;33.44;39.37;99549.24;108379;1260;60864;-83
2023/07/25 05:25:39;;;;;;;;;;;;;;;34.48;40.05;99545.52;108492;1260;125265;-82
2023/07/25 05:28:06;;;;;;;;;;;;;;;35.78;39.53;99542.24;108503;1260;59996;-82
2023/07/25 05:30:35;;;;;;;;;;;;;;;36.92;38.55;99544.86;108657;1259;60200;-84
2023/07/25 05:33:03;;;;;;;;;;;;;;;37.90;37.76;99547.64;108536;1260;124440;-85
2023/07/25 05:35:30;;;;;;;;;;;;;;;38.69;36.79;99545.05;108543;1260;60145;-83
2023/07/25 05:37:57;;;;;;;;;;;;;;;39.26;35.70;99544.50;108413;1264;124749;-83
2023/07/25 05:40:24;;;;;;;;;;;;;;;39.54;34.85;99548.80;108469;1260;59965;-83
2023/07/25 05:42:51;;;;;;;;;;;;;;;39.62;34.21;99552.27;108588;1260;60010;-83
2023/07/25 05:45:21;;;;;;;;;;;;;;;38.63;33.27;99555.46;108463;1259;126187;-84
2023/07/25 05:47:48;;;;;;;;;;;;;;;36.57;33.40;99555.98;108508;1260;60748;-84
2023/07/25 05:50:17;;;;;;;;;;;;;;;34.31;34.28;99563.30;108549;1261;127113;-84
2023/07/25 05:52:44;;;;;;;;;;;;;;;32.52;35.73;99563.21;108636;1260;60887;-84
2023/07/25 05:55:10;;;;;;;;;;;;;;;31.08;37.02;99566.86;108463;1259;124942;-84
2023/07/25 05:57:37;;;;;;;;;;;;;;;29.85;38.11;99566.96;108688;1261;65666;-83
2023/07/25 06:00:18;;;;;;;;;;;;;;;;;;;;;
2023/07/25 06:02:52;;;;;;;;;;;;;;;27.54;40.55;99564.18;108399;1265;124795;-84
2023/07/25 06:05:19;;;;;;;;;;;;;;;26.78;41.91;99570.75;108458;1261;60416;-84
2023/07/25 06:07:54;;;;;;;;;;;;;;;26.20;42.94;99571.48;108335;1260;124475;-84
2023/07/25 06:10:24;;;;;;;;;;;;;;;25.74;43.88;99576.04;108409;1264;74850;-84
2023/07/25 06:12:51;;;;;;;;;;;;;;;25.32;44.69;99579.41;108718;1259;67355;-84
2023/07/25 06:15:18;;;;;;;;;;;;;;;24.98;45.36;99588.23;108480;1259;124750;-84
2023/07/25 06:17:45;;;;;;;;;;;;;;;24.63;45.88;99583.61;108568;1260;60638;-83
2023/07/25 06:20:12;;;;;;;;;;;;;;;24.36;46.77;99577.80;108389;1260;124177;-84
2023/07/25 06:22:39;;;;;;;;;;;;;;;24.12;47.30;99580.95;108397;1260;75468;-85
2023/07/25 06:25:07;;;;;;;;;;;;;;;23.87;47.95;99583.64;108476;1260;124964;-84
2023/07/25 06:27:34;;;;;;;;;;;;;;;23.68;48.45;99579.09;108509;1262;71779;-85
2023/07/25 06:30:02;;;;;;;;;;;;;;;23.51;48.82;99578.12;108506;1265;60338;-84
2023/07/25 06:32:30;;;;;;;;;;;;;;;23.33;49.41;99580.40;108417;1260;125521;-84
2023/07/25 06:34:57;;;;;;;;;;;;;;;23.19;49.78;99582.63;108632;1260;75235;-84
2023/07/25 06:37:24;;;;;;;;;;;;;;;23.05;50.09;99583.65;108486;1260;124669;-84
2023/07/25 06:39:50;;;;;;;;;;;;;;;22.93;50.33;99585.75;108615;1260;73427;-84
2023/07/25 06:42:17;;;;;;;;;;;;;;;22.84;50.82;99583.65;108563;1260;60360;-84
2023/07/25 06:44:47;;;;;;;;;;;;;;;22.78;51.24;99581.77;108258;1266;126216;-84
2023/07/25 06:47:14;;;;;;;;;;;;;;;22.68;51.36;99578.63;108394;1259;75432;-83
2023/07/25 06:49:41;;;;;;;;;;;;;;;22.62;51.80;99581.05;108523;1262;125457;-82
2023/07/25 06:52:08;;;;;;;;;;;;;;;22.59;52.22;99579.00;108494;1261;71428;-84
2023/07/25 06:54:35;;;;;;;;;;;;;;;22.55;52.36;99581.90;108554;1264;60207;-83
2023/07/25 06:57:02;;;;;;;;;;;;;;;22.52;52.61;99581.10;108531;1260;125448;-83
2023/07/25 06:59:31;;;;;;;;;;;;;;;22.52;53.02;99578.06;108709;1259;74426;-83
2023/07/25 07:01:58;;;;;;;;;;;;;;;22.54;53.27;99581.91;108603;1259;124799;-83
2023/07/25 07:04:25;;;;;;;;;;;;;;;22.57;53.36;99588.60;108665;1259;72190;-84
2023/07/25 07:06:52;;;;;;;;;;;;;;;22.56;53.28;99583.45;108626;1259;60318;-84
2023/07/25 07:09:19;;;;;;;;;;;;;;;22.54;53.57;99588.89;108423;1259;124755;-84
2023/07/25 07:11:46;;;;;;;;;;;;;;;22.56;53.67;99592.94;108488;1260;76033;-83
2023/07/25 07:14:13;;;;;;;;;;;;;;;22.56;53.76;99598.11;108542;1261;125388;-84
2023/07/25 07:16:40;;;;;;;;;;;;;;;22.55;53.74;99602.63;108428;1266;72821;-84
2023/07/25 07:19:06;;;;;;;;;;;;;;;22.57;53.92;99604.16;108400;1261;124519;-84
2023/07/25 07:21:33;;;;;;;;;;;;;;;22.66;54.13;99606.77;108676;1260;60412;-84
2023/07/25 07:24:00;;;;;;;;;;;;;;;22.85;54.17;99611.14;108685;1260;73560;-85
2023/07/25 07:26:27;;;;;;;;;;;;;;;22.97;53.82;99611.00;108442;1260;125078;-84
2023/07/25 07:28:54;;;;;;;;;;;;;;;22.95;53.64;99615.18;108597;1264;73204;-84
2023/07/25 07:31:23;;;;;;;;;;;;;;;22.95;53.85;99619.83;108366;1264;125646;-84
2023/07/25 07:33:50;;;;;;;;;;;;;;;23.05;53.97;99629.25;108593;1261;60122;-84
2023/07/25 07:36:17;;;;;;;;;;;;;;;23.29;54.11;99636.95;108487;1261;77254;-84
2023/07/25 07:38:43;;;;;;;;;;;;;;;23.52;53.81;99642.35;108496;1260;124994;-84
2023/07/25 07:41:10;;;;;;;;;;;;;;;23.61;53.44;99648.55;108600;1260;71503;-84
2023/07/25 07:43:37;;;;;;;;;;;;;;;23.67;53.15;99650.25;108373;1260;125412;-84
2023/07/25 07:46:04;;;;;;;;;;;;;;;23.73;53.09;99656.27;108512;1260;60394;-84
2023/07/25 07:48:31;;;;;;;;;;;;;;;23.87;52.99;99665.14;108487;1260;73946;-84
2023/07/25 07:51:01;;;;;;;;;;;;;;;24.07;52.96;99669.76;108434;1260;126295;-84
2023/07/25 07:53:28;;;;;;;;;;;;;;;24.18;52.43;99670.30;108460;1261;72769;-85
2023/07/25 07:55:55;;;;;;;;;;;;;;;24.39;52.28;99673.73;108506;1261;125471;-85
2023/07/25 07:58:22;;;;;;;;;;;;;;;24.59;51.69;99683.37;108752;1262;59820;-85
2023/07/25 08:00:49;;;;;;;;;;;;;;;24.73;51.47;99688.06;108633;1260;74388;-84
2023/07/25 08:03:15;;;;;;;;;;;;;;;24.85;51.20;99703.21;108526;1260;124147;-85
2023/07/25 08:05:43;;;;;;;;;;;;;;;25.00;51.15;99702.84;108647;1260;72243;-84
2023/07/25 08:08:10;;;;;;;;;;;;;;;25.19;50.77;99699.02;108590;1259;125412;-84
2023/07/25 08:10:37;;;;;;;;;;;;;;;25.38;50.70;99698.16;108762;1259;60087;-85
2023/07/25 08:13:04;;;;;;;;;;;;;;;25.32;50.11;99707.88;108535;1260;124426;-84
2023/07/25 08:15:30;;;;;;;;;;;;;;;25.14;50.04;99709.98;108525;1262;66053;-84
2023/07/25 08:17:57;;;;;;;;;;;;;;;25.03;49.82;99703.39;108668;1261;72281;-84
2023/07/25 08:20:24;;;;;;;;;;;;;;;24.97;50.13;99699.57;108456;1262;124655;-84
2023/07/25 08:22:51;;;;;;;;;;;;;;;25.24;50.35;99708.09;108559;1262;60319;-84
2023/07/25 08:25:18;;;;;;;;;;;;;;;25.52;49.96;99714.52;108459;1264;125880;-84
2023/07/25 08:27:45;;;;;;;;;;;;;;;25.64;49.44;99718.55;108576;1262;66601;-84
2023/07/25 08:30:12;;;;;;;;;;;;;;;25.62;49.19;99724.19;108542;1264;72779;-84
2023/07/25 08:32:39;;;;;;;;;;;;;;;25.46;48.61;99730.09;108316;1265;125535;-85
2023/07/25 08:35:06;;;;;;;;;;;;;;;25.30;48.83;99731.66;108442;1262;60065;-85
2023/07/25 08:37:33;;;;;;;;;;;;;;;25.18;48.76;99727.59;108555;1262;124055;-84
2023/07/25 08:40:00;;;;;;;;;;;;;;;25.05;48.73;99725.02;108636;1262;66050;-84
2023/07/25 08:42:35;;;;;;;;;;;;;;;25.06;49.22;99728.02;108490;1262;72838;-84
2023/07/25 08:45:04;;;;;;;;;;;;;;;25.10;49.22;99728.70;108473;1264;124829;-84
2023/07/25 08:47:31;;;;;;;;;;;;;;;25.07;49.25;99725.80;108352;1262;60329;-85
2023/07/25 08:49:58;;;;;;;;;;;;;;;25.05;49.41;99725.89;108294;1262;126567;-84
2023/07/25 08:52:26;;;;;;;;;;;;;;;25.00;49.50;99721.31;108486;1260;67777;-83
2023/07/25 08:54:53;;;;;;;;;;;;;;;24.94;49.62;99716.25;108471;1261;72727;-83
2023/07/25 08:57:20;;;;;;;;;;;;;;;24.91;49.71;99712.25;108370;1262;124919;-82
2023/07/25 08:59:48;;;;;;;;;;;;;;;24.91;49.82;99708.15;108432;1262;60377;-85
2023/07/25 09:02:15;;;;;;;;;;;;;;;24.93;49.60;99711.25;108331;1261;125581;-83
2023/07/25 09:04:43;;;;;;;;;;;;;;;24.94;49.39;99709.43;108425;1262;65938;-83
2023/07/25 09:07:10;;;;;;;;;;;;;;;25.01;49.39;99706.90;108200;1264;125003;-83
2023/07/25 09:09:37;;;;;;;;;;;;;;;25.13;49.27;99708.25;108439;1277;60404;-83
2023/07/25 09:12:04;;;;;;;;;;;;;;;25.20;48.84;99705.92;108517;1261;59953;-83
2023/07/25 09:14:31;;;;;;;;;;;;;;;25.19;48.55;99709.55;108257;1261;125067;-83
2023/07/25 09:17:01;;;;;;;;;;;;;;;25.23;48.42;99709.90;108577;1260;65933;-83
2023/07/25 09:19:33;;;;;;;;;;;;;;;25.41;48.54;99697.13;108503;1259;124532;-83
2023/07/25 09:22:00;;;;;;;;;;;;;;;25.62;48.27;99688.09;108706;1260;60009;-83
2023/07/25 09:24:39;;;;;;;;;;;;;;;25.81;48.25;99684.73;108627;1259;60118;-83
2023/07/25 09:27:16;;;;;;;;;;;;;;;25.97;47.77;99684.77;108381;1260;124848;-84
2023/07/25 09:29:44;;;;;;;;;;;;;;;26.09;47.73;99685.55;108662;1260;66021;-84
2023/07/25 09:32:25;;;;;;;;;;;;;;;26.12;47.52;99686.77;108380;1264;125741;-84
2023/07/25 09:34:56;;;;;;;;;;;;;;;26.14;47.39;99690.84;108585;1260;59937;-84
2023/07/25 09:37:23;;;;;;;;;;;;;;;26.06;47.01;99689.83;108530;1264;124354;-84
2023/07/25 09:39:50;;;;;;;;;;;;;;;25.92;47.02;99697.10;108664;1260;74622;-84
2023/07/25 09:42:20;;;;;;;;;;;;;;;25.80;47.20;99702.77;108637;1260;65200;-83
2023/07/25 09:44:48;;;;;;;;;;;;;;;25.74;47.33;99705.96;108380;1263;124759;-84
2023/07/25 09:47:20;;;;;;;;;;;;;;;25.75;47.30;99705.02;108626;1264;61017;-84
2023/07/25 09:49:48;;;;;;;;;;;;;;;25.75;47.28;99698.73;108627;1263;124756;-84
2023/07/25 09:52:15;;;;;;;;;;;;;;;25.79;47.28;99698.89;108601;1259;75757;-84
2023/07/25 09:54:42;;;;;;;;;;;;;;;25.84;47.13;99699.48;108675;1259;66623;-84
2023/07/25 09:57:09;;;;;;;;;;;;;;;25.79;46.90;99705.53;108379;1260;124925;-84
2023/07/25 09:59:36;;;;;;;;;;;;;;;25.66;46.74;99705.86;108417;1260;60222;-85
2023/07/25 10:02:03;;;;;;;;;;;;;;;25.53;46.67;99708.36;108298;1264;124287;-84
2023/07/25 10:04:30;;;;;;;;;;;;;;;25.42;46.36;99717.02;108364;1260;75763;-84
2023/07/25 10:06:58;;;;;;;;;;;;;;;25.35;46.37;99723.14;108451;1259;65772;-84
2023/07/25 10:09:25;;;;;;;;;;;;;;;25.44;46.48;99730.04;108460;1259;124006;-84
2023/07/25 10:11:52;;;;;;;;;;;;;;;25.52;46.42;99733.20;108699;1259;60199;-84
2023/07/25 10:14:19;;;;;;;;;;;;;;;25.51;46.38;99731.08;108654;1259;124335;-84
2023/07/25 10:16:46;;;;;;;;;;;;;;;25.65;46.86;99735.73;108604;1259;75142;-84
2023/07/25 10:19:13;;;;;;;;;;;;;;;26.03;46.97;99738.02;108438;1260;124835;-85
2023/07/25 10:21:46;;;;;;;;;;;;;;;26.30;46.21;99748.00;108632;1261;72551;-84
2023/07/25 10:24:13;;;;;;;;;;;;;;;26.40;45.89;99748.20;108419;1266;60795;-84
2023/07/25 10:26:56;;;;;;;;;;;;;;;26.32;44.88;99751.86;108417;1261;125270;-85
2023/07/25 10:29:46;;;;;;;;;;;;;;;25.97;45.15;99756.14;108614;1276;76169;-84
2023/07/25 10:32:14;;;;;;;;;;;;;;;25.77;45.12;99757.02;108453;1261;124256;-84
2023/07/25 10:34:44;;;;;;;;;;;;;;;25.69;45.46;99756.54;108531;1260;71967;-84
2023/07/25 10:37:21;;;;;;;;;;;;;;;25.69;45.71;99759.63;108654;1259;124887;-84
2023/07/25 10:40:04;;;;;;;;;;;;;;;25.70;45.82;99760.78;108608;1259;61128;-83
2023/07/25 10:42:41;;;;;;;;;;;;;;;25.74;45.83;99756.10;108676;1259;75247;-84
2023/07/25 10:45:27;;;;;;;;;;;;;;;25.71;45.67;99760.23;108414;1260;126324;-84
2023/07/25 10:47:54;;;;;;;;;;;;;;;25.66;45.77;99762.83;108560;1260;71792;-84
2023/07/25 10:50:27;;;;;;;;;;;;;;;25.50;45.55;99764.00;108088;1260;209073;-84
2023/07/25 10:52:54;;;;;;;;;;;;;;;25.35;45.28;99768.54;108473;1259;60155;-84
2023/07/25 10:55:21;;;;;;;;;;;;;;;25.23;45.11;99774.02;108549;1261;125412;-84
2023/07/25 10:58:09;;;;;;;;;;;;;;;25.26;45.21;99772.08;108607;1264;65916;-83
2023/07/25 11:00:37;;;;;;;;;;;;;;;25.30;44.55;99771.35;108653;1264;71670;-86
2023/07/25 11:03:23;;;;;;;;;;;;;;;25.35;44.47;99775.39;108561;1262;124828;-84
2023/07/25 11:05:49;;;;;;;;;;;;;;;25.48;44.50;99774.92;108547;1261;60968;-84
2023/07/25 11:08:17;;;;;;;;;;;;;;;25.58;43.99;99773.13;108373;1260;125122;-84
2023/07/25 11:10:43;;;;;;;;;;;;;;;25.66;43.61;99777.56;108528;1259;66125;-85
2023/07/25 11:13:10;;;;;;;;;;;;;;;25.71;43.50;99781.40;108441;1264;124410;-84
2023/07/25 11:15:38;;;;;;;;;;;;;;;25.70;42.89;99776.44;108339;1266;60318;-84
2023/07/25 11:18:06;;;;;;;;;;;;;;;25.56;42.46;99773.92;108390;1260;60242;-84
2023/07/25 11:20:33;;;;;;;;;;;;;;;25.45;42.21;99775.20;108475;1260;124544;-84
2023/07/25 11:23:00;;;;;;;;;;;;;;;25.45;42.16;99770.94;108676;1264;65897;-84
2023/07/25 11:25:27;;;;;;;;;;;;;;;25.57;42.19;99765.07;108433;1263;126330;-84
2023/07/25 11:27:53;;;;;;;;;;;;;;;25.72;42.47;99761.95;108600;1260;60203;-84
2023/07/25 11:30:20;;;;;;;;;;;;;;;25.89;42.36;99755.30;108551;1267;60298;-84
2023/07/25 11:32:54;;;;;;;;;;;;;;;26.05;42.65;99754.27;108432;1260;125187;-84
2023/07/25 11:35:24;;;;;;;;;;;;;;;26.30;42.74;99755.06;108450;1260;66337;-84
2023/07/25 11:37:57;;;;;;;;;;;;;;;26.52;42.88;99754.15;108346;1260;125743;-85
2023/07/25 11:40:27;;;;;;;;;;;;;;;26.72;42.78;99759.18;108618;1259;60436;-85
2023/07/25 11:42:54;;;;;;;;;;;;;;;26.85;42.29;99760.36;108754;1259;60114;-85
2023/07/25 11:45:21;;;;;;;;;;;;;;;26.87;41.84;99762.45;108652;1259;124540;-84
2023/07/25 11:47:49;;;;;;;;;;;;;;;26.85;41.84;99758.92;108623;1259;67024;-85
2023/07/25 11:50:16;;;;;;;;;;;;;;;26.93;41.71;99761.89;108401;1261;125376;-84
2023/07/25 11:52:43;;;;;;;;;;;;;;;27.05;41.54;99761.54;108478;1260;59968;-85
2023/07/25 11:55:10;;;;;;;;;;;;;;;27.05;41.19;99767.48;108602;1259;125248;-85
2023/07/25 11:57:41;;;;;;;;;;;;;;;26.87;41.36;99766.77;108535;1259;75992;-85
2023/07/25 12:00:11;;;;;;;;;;;;;;;26.77;41.47;99772.41;108546;1259;66104;-85
2023/07/25 12:02:38;;;;;;;;;;;;;;;26.78;41.89;99778.05;108285;1259;125035;-84
2023/07/25 12:05:09;;;;;;;;;;;;;;;26.89;41.79;99786.47;108535;1259;60184;-85
2023/07/25 12:07:49;;;;;;;;;;;;;;;26.97;41.86;99789.41;108541;1259;125819;-83
2023/07/25 12:10:26;;;;;;;;;;;;;;;27.02;41.96;99795.08;108708;1259;75509;-85
2023/07/25 12:12:56;;;;;;;;;;;;;;;27.03;42.01;99797.30;108583;1261;67603;-85
2023/07/25 12:15:23;;;;;;;;;;;;;;;27.13;41.61;99803.73;108461;1259;124782;-84
2023/07/25 12:17:50;;;;;;;;;;;;;;;27.03;41.28;99806.14;108683;1263;60217;-84
2023/07/25 12:20:18;;;;;;;;;;;;;;;26.92;41.72;99810.40;108459;1261;124884;-83
2023/07/25 12:22:45;;;;;;;;;;;;;;;26.82;41.81;99818.50;108481;1260;74075;-83
2023/07/25 12:25:20;;;;;;;;;;;;;;;26.71;41.76;99822.22;108388;1261;125273;-84
2023/07/25 12:27:48;;;;;;;;;;;;;;;26.60;41.64;99824.98;108572;1262;72053;-84
2023/07/25 12:30:15;;;;;;;;;;;;;;;26.43;41.81;99826.42;108512;1261;59942;-84
2023/07/25 12:32:44;;;;;;;;;;;;;;;26.29;41.77;99828.10;108379;1262;125327;-86
2023/07/25 12:35:11;;;;;;;;;;;;;;;26.21;42.12;99830.18;108528;1260;75296;-84
2023/07/25 12:37:38;;;;;;;;;;;;;;;26.21;42.22;99827.12;108364;1266;125698;-86